Time,TemperatureF,DewpointF,PressureIn,WindDirection,WindDirectionDegrees,WindSpeedMPH,WindSpeedGustMPH,Humidity,HourlyPrecipIn,Conditions,Clouds,dailyrainin,SoftwareType,DateUTC
2013-01-17 00:05:00,51.0,50.0,29.94,SSW,199,0.0,0.0,97,0.05,,,0.42,,2013-01-17 05:05:00,
2013-01-17 00:12:00,51.0,50.0,29.94,SSW,199,0.0,0.0,97,0.05,,,0.42,,2013-01-17 05:12:00,
2013-01-17 00:22:00,51.0,50.0,29.95,SSW,200,0.0,2.0,97,0.04,,,0.40,,2013-01-17 05:22:00,
2013-01-17 00:33:00,51.0,50.0,29.94,South,173,0.0,1.0,97,0.03,,,0.41,,2013-01-17 05:33:00,
2013-01-17 00:42:00,51.0,50.0,29.94,South,173,0.0,1.0,97,0.03,,,0.41,,2013-01-17 05:42:00,
2013-01-17 00:52:00,51.0,50.0,29.94,South,174,0.0,0.0,97,0.02,,,0.41,,2013-01-17 05:52:00,
2013-01-17 01:03:00,51.0,50.0,29.93,South,173,0.0,0.0,97,0.01,,,0.41,,2013-01-17 06:03:00,
2013-01-17 01:12:00,51.0,50.0,29.93,South,174,0.0,0.0,97,0.01,,,0.39,,2013-01-17 06:12:00,
2013-01-17 01:22:00,51.0,50.0,29.93,South,174,0.0,0.0,97,0.01,,,0.39,,2013-01-17 06:22:00,
2013-01-17 01:33:00,51.0,50.0,29.93,South,173,0.0,0.0,97,0.00,,,0.39,,2013-01-17 06:33:00,
2013-01-17 01:42:00,51.0,50.0,29.93,South,173,0.0,0.0,97,0.00,,,0.39,,2013-01-17 06:42:00,
2013-01-17 01:52:00,50.0,49.0,29.94,South,174,0.0,0.0,97,0.00,,,0.39,,2013-01-17 06:52:00,
2013-01-17 02:02:00,50.0,49.0,29.94,South,174,0.0,0.0,97,0.00,,,0.39,,2013-01-17 07:02:00,
2013-01-17 02:12:00,50.0,49.0,29.94,South,174,0.0,0.0,97,0.00,,,0.39,,2013-01-17 07:12:00,
2013-01-17 02:22:00,50.0,49.0,29.95,South,173,0.0,0.0,97,0.00,,,0.38,,2013-01-17 07:22:00,
2013-01-17 02:33:00,51.0,50.0,29.95,South,173,0.0,0.0,97,0.00,,,0.38,,2013-01-17 07:33:00,
2013-01-17 02:42:00,51.0,50.0,29.95,South,173,0.0,0.0,97,0.00,,,0.38,,2013-01-17 07:42:00,
2013-01-17 02:52:00,51.0,50.0,29.96,South,174,0.0,0.0,97,0.00,,,0.38,,2013-01-17 07:52:00,
2013-01-17 03:02:00,51.0,50.0,29.94,South,174,0.0,1.0,97,0.01,,,0.39,,2013-01-17 08:02:00,
2013-01-17 03:12:00,51.0,50.0,29.94,South,174,0.0,1.0,97,0.01,,,0.39,,2013-01-17 08:12:00,
2013-01-17 03:22:00,51.0,50.0,29.94,South,173,0.0,2.0,97,0.01,,,0.37,,2013-01-17 08:22:00,
2013-01-17 03:32:00,50.0,49.0,29.93,South,173,0.0,0.0,97,0.02,,,0.38,,2013-01-17 08:32:00,
2013-01-17 03:43:00,50.0,49.0,29.93,South,173,0.0,0.0,97,0.02,,,0.38,,2013-01-17 08:43:00,
2013-01-17 03:52:00,50.0,49.0,29.93,South,174,0.0,0.0,97,0.03,,,0.39,,2013-01-17 08:52:00,
2013-01-17 04:03:00,50.0,49.0,29.92,South,174,0.0,0.0,96,0.02,,,0.39,,2013-01-17 09:03:00,
2013-01-17 04:12:00,50.0,49.0,29.92,South,174,0.0,0.0,96,0.02,,,0.39,,2013-01-17 09:12:00,
2013-01-17 04:22:00,50.0,49.0,29.92,South,173,0.0,0.0,97,0.02,,,0.32,,2013-01-17 09:22:00,
2013-01-17 04:33:00,50.0,49.0,29.92,South,184,1.0,2.0,97,0.02,,,0.33,,2013-01-17 09:33:00,
2013-01-17 04:42:00,50.0,49.0,29.92,South,184,1.0,2.0,97,0.02,,,0.33,,2013-01-17 09:42:00,
2013-01-17 04:52:00,49.0,48.0,29.93,South,184,0.0,2.0,96,0.01,,,0.33,,2013-01-17 09:52:00,
2013-01-17 05:02:00,49.0,48.0,29.92,South,184,0.0,0.0,96,0.01,,,0.33,,2013-01-17 10:02:00,
2013-01-17 05:12:00,49.0,48.0,29.92,South,184,0.0,0.0,96,0.01,,,0.33,,2013-01-17 10:12:00,
2013-01-17 05:22:00,49.0,48.0,29.92,South,184,0.0,0.0,96,0.02,,,0.31,,2013-01-17 10:22:00,
2013-01-17 05:32:00,48.0,47.0,29.93,South,184,0.0,2.0,96,0.01,,,0.31,,2013-01-17 10:32:00,
2013-01-17 05:42:00,48.0,47.0,29.93,South,184,0.0,2.0,96,0.01,,,0.31,,2013-01-17 10:42:00,
2013-01-17 05:52:00,48.0,47.0,29.92,South,184,0.0,0.0,96,0.01,,,0.31,,2013-01-17 10:52:00,
2013-01-17 06:03:00,47.0,46.0,29.92,South,184,0.0,0.0,96,0.02,,,0.32,,2013-01-17 11:03:00,
2013-01-17 06:12:00,47.0,46.0,29.92,South,184,0.0,0.0,96,0.02,,,0.32,,2013-01-17 11:12:00,
2013-01-17 06:22:00,47.0,46.0,29.92,South,184,0.0,1.0,96,0.02,,,0.33,,2013-01-17 11:22:00,
2013-01-17 06:33:00,47.0,46.0,29.92,South,184,1.0,3.0,96,0.02,,,0.33,,2013-01-17 11:33:00,
2013-01-17 06:43:00,47.0,46.0,29.92,South,184,1.0,3.0,96,0.02,,,0.33,,2013-01-17 11:43:00,
2013-01-17 06:52:00,47.0,46.0,29.91,South,184,0.0,0.0,96,0.02,,,0.33,,2013-01-17 11:52:00,
2013-01-17 07:03:00,47.0,46.0,29.92,South,184,0.0,1.0,96,0.02,,,0.34,,2013-01-17 12:03:00,
2013-01-17 07:12:00,47.0,46.0,29.92,South,184,0.0,1.0,96,0.02,,,0.34,,2013-01-17 12:12:00,
2013-01-17 07:23:00,47.0,46.0,29.92,South,184,0.0,1.0,96,0.02,,,0.34,,2013-01-17 12:23:00,
2013-01-17 07:33:00,46.0,45.0,29.91,South,184,0.0,2.0,96,0.02,,,0.34,,2013-01-17 12:33:00,
2013-01-17 07:43:00,46.0,45.0,29.91,South,184,0.0,2.0,96,0.02,,,0.34,,2013-01-17 12:43:00,
2013-01-17 07:52:00,46.0,45.0,29.92,South,184,0.0,0.0,96,0.02,,,0.34,,2013-01-17 12:52:00,
2013-01-17 08:03:00,46.0,45.0,29.91,South,184,0.0,1.0,96,0.01,,,0.34,,2013-01-17 13:03:00,
2013-01-17 08:12:00,46.0,45.0,29.91,South,184,0.0,1.0,96,0.01,,,0.34,,2013-01-17 13:12:00,
2013-01-17 08:23:00,46.0,45.0,29.92,South,184,0.0,2.0,96,0.01,,,0.27,,2013-01-17 13:23:00,
2013-01-17 08:33:00,46.0,45.0,29.92,SW,220,1.0,2.0,96,0.05,,,0.31,,2013-01-17 13:33:00,
2013-01-17 08:43:00,46.0,45.0,29.92,SW,220,1.0,2.0,96,0.05,,,0.31,,2013-01-17 13:43:00,
2013-01-17 08:52:00,46.0,45.0,29.92,SW,220,0.0,3.0,96,0.06,,,0.32,,2013-01-17 13:52:00,
2013-01-17 09:03:00,46.0,45.0,29.93,SW,220,1.0,2.0,96,0.09,,,0.35,,2013-01-17 14:03:00,
2013-01-17 09:12:00,46.0,45.0,29.93,SW,220,1.0,2.0,96,0.09,,,0.35,,2013-01-17 14:12:00,
2013-01-17 09:23:00,45.0,44.0,29.92,SW,220,0.0,1.0,96,0.10,,,0.36,,2013-01-17 14:23:00,
2013-01-17 09:33:00,45.0,44.0,29.92,SW,220,0.0,1.0,96,0.09,,,0.39,,2013-01-17 14:33:00,
2013-01-17 09:43:00,45.0,44.0,29.92,SW,220,0.0,1.0,96,0.09,,,0.39,,2013-01-17 14:43:00,
2013-01-17 09:53:00,45.0,44.0,29.92,SW,220,0.0,2.0,96,0.08,,,0.39,,2013-01-17 14:53:00,
2013-01-17 10:03:00,45.0,44.0,29.93,SSW,212,1.0,4.0,96,0.07,,,0.41,,2013-01-17 15:03:00,
2013-01-17 10:12:00,45.0,44.0,29.93,SSW,212,1.0,4.0,96,0.07,,,0.41,,2013-01-17 15:12:00,
2013-01-17 10:23:00,45.0,44.0,29.93,SSW,213,0.0,2.0,97,0.11,,,0.47,,2013-01-17 15:23:00,
2013-01-17 10:33:00,45.0,44.0,29.91,South,172,0.0,2.0,97,0.14,,,0.53,,2013-01-17 15:33:00,
2013-01-17 10:43:00,45.0,44.0,29.91,South,172,0.0,2.0,97,0.14,,,0.53,,2013-01-17 15:43:00,
2013-01-17 10:53:00,45.0,44.0,29.90,NNE,30,3.0,6.0,97,0.14,,,0.53,,2013-01-17 15:53:00,
2013-01-17 11:03:00,47.0,46.0,29.88,NNE,25,1.0,9.0,97,0.12,,,0.53,,2013-01-17 16:03:00,
2013-01-17 11:12:00,47.0,46.0,29.88,NNE,25,1.0,9.0,97,0.12,,,0.53,,2013-01-17 16:12:00,
2013-01-17 11:23:00,47.0,46.0,29.87,ENE,63,2.0,5.0,96,0.06,,,0.48,,2013-01-17 16:23:00,
2013-01-17 11:33:00,47.0,46.0,29.88,SW,233,1.0,4.0,97,0.02,,,0.50,,2013-01-17 16:33:00,
2013-01-17 11:43:00,47.0,46.0,29.88,SW,233,1.0,4.0,97,0.02,,,0.50,,2013-01-17 16:43:00,
2013-01-17 11:53:00,47.0,46.0,29.88,East,86,1.0,3.0,97,0.06,,,0.54,,2013-01-17 16:53:00,
2013-01-17 12:03:00,47.0,46.0,29.85,East,80,5.0,8.0,96,0.11,,,0.59,,2013-01-17 17:03:00,
2013-01-17 12:13:00,47.0,46.0,29.85,East,80,5.0,8.0,96,0.11,,,0.59,,2013-01-17 17:13:00,
2013-01-17 12:23:00,47.0,46.0,29.85,SW,233,0.0,4.0,97,0.13,,,0.61,,2013-01-17 17:23:00,
2013-01-17 12:33:00,47.0,46.0,29.84,NW,321,0.0,4.0,96,0.14,,,0.64,,2013-01-17 17:33:00,
2013-01-17 12:43:00,47.0,46.0,29.84,NW,321,0.0,4.0,96,0.14,,,0.64,,2013-01-17 17:43:00,
2013-01-17 12:53:00,47.0,46.0,29.83,WSW,247,0.0,4.0,96,0.12,,,0.66,,2013-01-17 17:53:00,
2013-01-17 13:04:00,46.0,44.0,29.80,East,79,0.0,7.0,94,0.08,,,0.67,,2013-01-17 18:04:00,
2013-01-17 13:13:00,46.0,44.0,29.80,East,79,0.0,7.0,94,0.08,,,0.67,,2013-01-17 18:13:00,
2013-01-17 13:23:00,46.0,44.0,29.79,SSW,193,0.0,8.0,94,0.07,,,0.68,,2013-01-17 18:23:00,
2013-01-17 13:34:00,46.0,44.0,29.81,SW,219,1.0,5.0,94,0.10,,,0.74,,2013-01-17 18:34:00,
2013-01-17 13:43:00,46.0,44.0,29.81,SW,219,1.0,5.0,94,0.10,,,0.74,,2013-01-17 18:43:00,
2013-01-17 13:53:00,46.0,44.0,29.81,SW,219,1.0,5.0,94,0.10,,,0.74,,2013-01-17 18:53:00,
2013-01-17 14:03:00,45.0,43.0,29.79,NNW,333,5.0,11.0,92,0.15,,,0.82,,2013-01-17 19:03:00,
2013-01-17 14:13:00,45.0,43.0,29.79,NNW,333,5.0,11.0,92,0.15,,,0.82,,2013-01-17 19:13:00,
2013-01-17 14:23:00,44.0,42.0,29.78,West,268,1.0,7.0,92,0.17,,,0.85,,2013-01-17 19:23:00,
2013-01-17 14:33:00,44.0,42.0,29.79,NNW,341,0.0,4.0,93,0.18,,,0.92,,2013-01-17 19:33:00,
2013-01-17 14:43:00,44.0,42.0,29.79,NNW,341,0.0,4.0,93,0.18,,,0.92,,2013-01-17 19:43:00,
2013-01-17 14:53:00,44.0,42.0,29.79,East,82,0.0,8.0,92,0.18,,,0.94,,2013-01-17 19:53:00,
2013-01-17 15:03:00,43.0,41.0,29.80,North,357,4.0,8.0,91,0.17,,,0.99,,2013-01-17 20:03:00,
2013-01-17 15:12:00,43.0,41.0,29.80,North,357,4.0,8.0,91,0.17,,,0.99,,2013-01-17 20:12:00,
2013-01-17 15:23:00,42.0,39.0,29.80,ENE,62,4.0,10.0,90,0.15,,,1.00,,2013-01-17 20:23:00,
2013-01-17 15:33:00,42.0,40.0,29.80,SSE,151,0.0,3.0,92,0.14,,,1.06,,2013-01-17 20:33:00,
2013-01-17 15:43:00,42.0,40.0,29.80,SSE,151,0.0,3.0,92,0.14,,,1.06,,2013-01-17 20:43:00,
2013-01-17 15:53:00,42.0,40.0,29.83,SSE,150,0.0,2.0,92,0.16,,,1.10,,2013-01-17 20:53:00,
2013-01-17 16:03:00,41.0,39.0,29.85,NW,308,0.0,3.0,92,0.17,,,1.16,,2013-01-17 21:03:00,
2013-01-17 16:13:00,41.0,39.0,29.85,NW,308,0.0,3.0,92,0.17,,,1.16,,2013-01-17 21:13:00,
2013-01-17 16:23:00,41.0,39.0,29.83,NW,308,0.0,1.0,93,0.19,,,1.19,,2013-01-17 21:23:00,
2013-01-17 16:34:00,41.0,39.0,29.81,NW,308,0.0,0.0,92,0.21,,,1.27,,2013-01-17 21:34:00,
2013-01-17 16:43:00,41.0,39.0,29.81,NW,308,0.0,0.0,92,0.21,,,1.27,,2013-01-17 21:43:00,
2013-01-17 16:53:00,41.0,39.0,29.78,WNW,300,2.0,3.0,93,0.20,,,1.30,,2013-01-17 21:53:00,
2013-01-17 17:04:00,41.0,39.0,29.75,WNW,292,1.0,11.0,94,0.30,,,1.46,,2013-01-17 22:04:00,
2013-01-17 17:12:00,41.0,39.0,29.75,WNW,292,1.0,11.0,94,0.30,,,1.46,,2013-01-17 22:12:00,
2013-01-17 17:23:00,41.0,39.0,29.76,NNW,348,4.0,8.0,94,0.28,,,1.47,,2013-01-17 22:23:00,
2013-01-17 17:33:00,41.0,38.0,29.77,ENE,63,4.0,15.0,90,0.21,,,1.48,,2013-01-17 22:33:00,
2013-01-17 17:43:00,41.0,38.0,29.77,ENE,63,4.0,15.0,90,0.21,,,1.48,,2013-01-17 22:43:00,
2013-01-17 17:52:00,41.0,38.0,29.83,NNE,30,2.0,9.0,89,0.18,,,1.48,,2013-01-17 22:52:00,
2013-01-17 18:03:00,41.0,38.0,29.85,WSW,246,0.0,5.0,89,0.03,,,1.49,,2013-01-17 23:03:00,
2013-01-17 18:12:00,41.0,38.0,29.85,WSW,246,0.0,5.0,89,0.03,,,1.49,,2013-01-17 23:12:00,
2013-01-17 18:23:00,41.0,38.0,29.84,WSW,246,0.0,2.0,90,0.03,,,1.49,,2013-01-17 23:23:00,
2013-01-17 18:33:00,40.0,38.0,29.86,WSW,240,1.0,4.0,91,0.03,,,1.50,,2013-01-17 23:33:00,
2013-01-17 18:43:00,40.0,38.0,29.86,WSW,240,1.0,4.0,91,0.03,,,1.50,,2013-01-17 23:43:00,
2013-01-17 18:53:00,40.0,37.0,29.87,South,190,0.0,5.0,90,0.04,,,1.51,,2013-01-17 23:53:00,
2013-01-17 19:03:00,39.0,37.0,29.88,SSW,200,0.0,4.0,91,0.05,,,1.53,,2013-01-18 00:03:00,
2013-01-17 19:12:00,39.0,37.0,29.88,SSW,200,0.0,4.0,91,0.05,,,1.53,,2013-01-18 00:12:00,
2013-01-17 19:23:00,39.0,37.0,29.89,SSW,201,0.0,3.0,91,0.05,,,1.54,,2013-01-18 00:23:00,
2013-01-17 19:33:00,39.0,37.0,29.89,SSW,201,0.0,3.0,91,0.05,,,1.54,,2013-01-18 00:33:00,
2013-01-17 19:42:00,38.0,36.0,29.90,SSW,194,2.0,5.0,92,0.06,,,1.56,,2013-01-18 00:42:00,
2013-01-17 19:52:00,38.0,36.0,29.91,WNW,288,4.0,6.0,92,0.06,,,1.57,,2013-01-18 00:52:00,
2013-01-17 20:03:00,38.0,36.0,29.93,South,172,4.0,6.0,93,0.06,,,1.59,,2013-01-18 01:03:00,
2013-01-17 20:13:00,38.0,36.0,29.93,South,172,4.0,6.0,93,0.06,,,1.59,,2013-01-18 01:13:00,
2013-01-17 20:23:00,38.0,36.0,29.94,NE,34,0.0,10.0,92,0.05,,,1.59,,2013-01-18 01:23:00,
2013-01-17 20:33:00,37.0,35.0,29.97,SE,138,5.0,7.0,91,0.03,,,1.59,,2013-01-18 01:33:00,
2013-01-17 20:43:00,37.0,35.0,29.97,SE,138,5.0,7.0,91,0.03,,,1.59,,2013-01-18 01:43:00,
2013-01-17 20:52:00,37.0,35.0,29.98,South,182,1.0,6.0,91,0.02,,,1.59,,2013-01-18 01:52:00,
2013-01-17 21:03:00,37.0,35.0,30.01,WNW,286,1.0,9.0,91,0.00,,,1.59,,2013-01-18 02:03:00,
2013-01-17 21:12:00,37.0,35.0,30.01,WNW,286,1.0,9.0,91,0.00,,,1.59,,2013-01-18 02:12:00,
2013-01-17 21:23:00,37.0,35.0,30.01,NNW,329,4.0,7.0,91,0.00,,,1.58,,2013-01-18 02:23:00,
2013-01-17 21:33:00,37.0,34.0,30.03,South,175,0.0,5.0,90,0.00,,,1.58,,2013-01-18 02:33:00,
2013-01-17 21:43:00,37.0,34.0,30.03,South,175,0.0,5.0,90,0.00,,,1.58,,2013-01-18 02:43:00,
2013-01-17 21:52:00,36.0,33.0,30.03,SSE,164,2.0,10.0,89,0.00,,,1.58,,2013-01-18 02:52:00,
2013-01-17 22:02:00,35.0,32.0,30.05,ESE,105,2.0,4.0,89,0.00,,,1.58,,2013-01-18 03:02:00,
2013-01-17 22:12:00,35.0,32.0,30.05,ESE,105,2.0,4.0,89,0.00,,,1.58,,2013-01-18 03:12:00,
2013-01-17 22:23:00,35.0,32.0,30.05,South,176,2.0,4.0,90,0.00,,,1.58,,2013-01-18 03:23:00,
2013-01-17 22:33:00,35.0,31.0,30.06,NNW,338,5.0,11.0,86,0.00,,,1.58,,2013-01-18 03:33:00,
2013-01-17 22:42:00,35.0,31.0,30.06,NNW,338,5.0,11.0,86,0.00,,,1.58,,2013-01-18 03:42:00,
2013-01-17 22:52:00,35.0,30.0,30.07,North,0,4.0,9.0,82,0.00,,,1.58,,2013-01-18 03:52:00,
2013-01-17 23:02:00,34.0,30.0,30.08,NW,324,3.0,7.0,85,0.00,,,1.58,,2013-01-18 04:02:00,
2013-01-17 23:12:00,34.0,30.0,30.08,NW,324,3.0,7.0,85,0.00,,,1.58,,2013-01-18 04:12:00,
2013-01-17 23:22:00,33.0,28.0,30.09,NNE,29,2.0,10.0,83,0.00,,,1.55,,2013-01-18 04:22:00,
2013-01-17 23:33:00,32.0,27.0,30.10,NNE,17,6.0,10.0,83,0.00,,,1.55,,2013-01-18 04:33:00,
2013-01-17 23:42:00,32.0,27.0,30.10,NNE,17,6.0,10.0,83,0.00,,,1.55,,2013-01-18 04:42:00,
2013-01-17 23:52:00,32.0,27.0,30.11,WSW,249,2.0,9.0,83,0.00,,,1.55,,2013-01-18 04:52:00,